createdAt,value
2022-11-04T00:00:10.792Z,51.111259
2022-11-04T00:01:10.811Z,51.111229
2022-11-04T00:02:10.881Z,51.111279
2022-11-04T00:03:11.093Z,51.111320
2022-11-04T00:04:10.789Z,51.111263
2022-11-04T00:05:10.740Z,51.111240
2022-11-04T00:06:10.734Z,51.111294
2022-11-04T00:07:10.754Z,51.111328
2022-11-04T00:08:10.729Z,51.111370
2022-11-04T00:09:10.736Z,51.111355
2022-11-04T00:10:10.812Z,51.111263
2022-11-04T00:11:10.628Z,51.111095
2022-11-04T00:12:10.672Z,51.111221
2022-11-04T00:13:10.947Z,51.111229
2022-11-04T00:14:10.584Z,51.111385
2022-11-04T00:15:10.603Z,51.111324
2022-11-04T00:16:10.596Z,51.111195
2022-11-04T00:17:10.585Z,51.111187
2022-11-04T00:18:10.974Z,51.111221
2022-11-04T00:19:10.579Z,51.111244
2022-11-04T00:20:10.624Z,51.111221
2022-11-04T00:21:10.626Z,51.111221
2022-11-04T00:22:10.672Z,51.111237
2022-11-04T00:23:11.028Z,51.111256
2022-11-04T00:24:10.665Z,51.111168
2022-11-04T00:25:10.655Z,51.111115
2022-11-04T00:26:10.665Z,51.111244
2022-11-04T00:27:10.677Z,51.111195
2022-11-04T00:28:10.787Z,51.111290
2022-11-04T00:29:10.590Z,51.111252
2022-11-04T00:30:10.600Z,51.111149
2022-11-04T00:31:10.632Z,51.111095
2022-11-04T00:32:10.486Z,51.111111
2022-11-04T00:33:10.464Z,51.111115
2022-11-04T00:34:10.576Z,51.111111
2022-11-04T00:35:10.595Z,51.111126
2022-11-04T00:36:10.562Z,51.111237
2022-11-04T00:37:10.541Z,51.111328
2022-11-04T00:38:10.802Z,51.111332
2022-11-04T00:39:10.492Z,51.111298
2022-11-04T00:40:10.614Z,51.111305
2022-11-04T00:41:10.586Z,51.111294
2022-11-04T00:42:10.565Z,51.111290
2022-11-04T00:43:10.482Z,51.111267
2022-11-04T00:44:10.549Z,51.111309
2022-11-04T00:45:10.440Z,51.111290
2022-11-04T00:46:10.638Z,51.111313
2022-11-04T00:47:12.453Z,51.111317
2022-11-04T00:48:10.683Z,51.111237
2022-11-04T00:49:10.348Z,51.111301
2022-11-04T00:50:10.387Z,51.111317
2022-11-04T00:51:10.555Z,51.111351
2022-11-04T00:52:10.340Z,51.111279
2022-11-04T00:53:10.665Z,51.111279
2022-11-04T00:54:10.331Z,51.111279
2022-11-04T00:55:10.325Z,51.111275
2022-11-04T00:56:10.372Z,51.111324
2022-11-04T00:57:10.415Z,51.111305
2022-11-04T00:58:10.412Z,51.111267
2022-11-04T00:59:13.447Z,51.111294
2022-11-04T01:00:11.290Z,51.111248
2022-11-04T01:01:10.453Z,51.111256
2022-11-04T01:02:10.503Z,51.111279
2022-11-04T01:03:10.748Z,51.111290
2022-11-04T01:04:10.308Z,51.111317
2022-11-04T01:05:10.384Z,51.111313
2022-11-04T01:06:10.295Z,51.111313
2022-11-04T01:07:10.416Z,51.111324
2022-11-04T01:08:10.310Z,51.111374
2022-11-04T01:09:10.228Z,51.111320
2022-11-04T01:10:10.191Z,51.111374
2022-11-04T01:11:10.165Z,51.111389
2022-11-04T01:12:10.157Z,51.111374
2022-11-04T01:13:10.539Z,51.111420
2022-11-04T01:14:10.174Z,51.111374
2022-11-04T01:15:10.155Z,51.111401
2022-11-04T01:16:10.164Z,51.111378
2022-11-04T01:17:10.193Z,51.111366
2022-11-04T01:18:10.883Z,51.111370
2022-11-04T01:19:10.128Z,51.111320
2022-11-04T01:20:10.216Z,51.111359
2022-11-04T01:21:10.213Z,51.111324
2022-11-04T01:22:10.217Z,51.111324
2022-11-04T01:23:10.189Z,51.111301
2022-11-04T01:24:10.279Z,51.111401
2022-11-04T01:25:10.141Z,51.111340
2022-11-04T01:26:10.097Z,51.111324
2022-11-04T01:27:10.182Z,51.111347
2022-11-04T01:28:10.566Z,51.111423
2022-11-04T01:29:10.157Z,51.111366
2022-11-04T01:30:10.031Z,51.111298
2022-11-04T01:31:10.102Z,51.111359
2022-11-04T01:32:10.239Z,51.111397
2022-11-04T01:33:10.034Z,51.111389
2022-11-04T01:34:10.058Z,51.111294
2022-11-04T01:35:10.162Z,51.111259
2022-11-04T01:36:10.111Z,51.111286
2022-11-04T01:37:10.075Z,51.111309
2022-11-04T01:38:10.605Z,51.111355
2022-11-04T01:39:10.068Z,51.111313
2022-11-04T01:40:10.099Z,51.111290
2022-11-04T01:41:10.034Z,51.111290
2022-11-04T01:42:10.059Z,51.111370
2022-11-04T01:43:10.496Z,51.111454
2022-11-04T01:44:10.033Z,51.111397
2022-11-04T01:45:10.055Z,51.111320
2022-11-04T01:46:10.081Z,51.111305
2022-11-04T01:47:09.980Z,51.111317
2022-11-04T01:48:09.988Z,51.111340
2022-11-04T01:49:09.905Z,51.111366
2022-11-04T01:50:10.095Z,51.111340
2022-11-04T01:51:10.119Z,51.111347
2022-11-04T01:52:09.973Z,51.111313
2022-11-04T01:53:10.397Z,51.111279
2022-11-04T01:54:09.945Z,51.111305
2022-11-04T01:55:09.951Z,51.111305
2022-11-04T01:56:10.000Z,51.111313
2022-11-04T01:57:10.000Z,51.111317
2022-11-04T01:58:09.950Z,51.111332
2022-11-04T01:59:09.909Z,51.111328
2022-11-04T02:00:09.877Z,51.111290
2022-11-04T02:01:09.942Z,51.111286
2022-11-04T02:02:10.077Z,51.111294
2022-11-04T02:03:10.274Z,51.111267
2022-11-04T02:04:09.817Z,51.111279
2022-11-04T02:05:09.785Z,51.111305
2022-11-04T02:06:09.803Z,51.111320
2022-11-04T02:07:09.863Z,51.111313
2022-11-04T02:08:09.922Z,51.111320
2022-11-04T02:10:10.847Z,51.111313
2022-11-04T02:11:09.814Z,51.111328
2022-11-04T02:12:09.935Z,51.111317
2022-11-04T02:13:10.318Z,51.111294
2022-11-04T02:14:09.897Z,51.111309
2022-11-04T02:15:09.828Z,51.111290
2022-11-04T02:16:09.927Z,51.111286
2022-11-04T02:17:09.904Z,51.111305
2022-11-04T02:18:09.784Z,51.111298
2022-11-04T02:19:09.935Z,51.111286
2022-11-04T02:20:09.698Z,51.111282
2022-11-04T02:21:09.737Z,51.111286
2022-11-04T02:22:09.712Z,51.111275
2022-11-04T02:23:10.157Z,51.111275
2022-11-04T02:24:09.786Z,51.111282
2022-11-04T02:25:09.680Z,51.111256
2022-11-04T02:26:09.650Z,51.111271
2022-11-04T02:27:09.733Z,51.111263
2022-11-04T02:28:09.821Z,51.111279
2022-11-04T02:29:09.750Z,51.111282
2022-11-04T02:30:09.788Z,51.111279
2022-11-04T02:31:09.699Z,51.111275
2022-11-04T02:32:09.706Z,51.111294
2022-11-04T02:33:10.071Z,51.111290
2022-11-04T02:34:09.699Z,51.111282
2022-11-04T02:35:09.737Z,51.111282
2022-11-04T02:36:09.716Z,51.111286
2022-11-04T02:37:09.745Z,51.111248
2022-11-04T02:38:09.646Z,51.111244
2022-11-04T02:39:09.741Z,51.111271
2022-11-04T02:40:09.591Z,51.111294
2022-11-04T02:41:09.603Z,51.111282
2022-11-04T02:42:09.581Z,51.111271
2022-11-04T02:43:09.936Z,51.111279
2022-11-04T02:44:09.536Z,51.111286
2022-11-04T02:45:09.565Z,51.111275
2022-11-04T02:46:09.541Z,51.111267
2022-11-04T02:47:09.524Z,51.111252
2022-11-04T02:48:09.604Z,51.111286
2022-11-04T02:49:09.599Z,51.111233
2022-11-04T02:50:09.559Z,51.111271
2022-11-04T02:51:09.549Z,51.111294
2022-11-04T02:52:09.599Z,51.111271
2022-11-04T02:53:09.846Z,51.111282
2022-11-04T02:54:09.593Z,51.111290
2022-11-04T02:55:09.535Z,51.111298
2022-11-04T02:56:09.586Z,51.111275
2022-11-04T02:57:09.587Z,51.111309
2022-11-04T02:58:09.580Z,51.111305
2022-11-04T02:59:09.492Z,51.111240
2022-11-04T03:00:09.453Z,51.111221
2022-11-04T03:01:09.443Z,51.111263
2022-11-04T03:02:10.578Z,51.111328
2022-11-04T03:03:09.776Z,51.111317
2022-11-04T03:04:09.412Z,51.111256
2022-11-04T03:05:09.412Z,51.111248
2022-11-04T03:06:09.383Z,51.111252
2022-11-04T03:07:09.376Z,51.111294
2022-11-04T03:08:09.755Z,51.111298
2022-11-04T03:09:09.391Z,51.111366
2022-11-04T03:10:09.362Z,51.111347
2022-11-04T03:11:09.503Z,51.111259
2022-11-04T03:12:09.398Z,51.111206
2022-11-04T03:13:09.440Z,51.111252
2022-11-04T03:14:09.404Z,51.111259
2022-11-04T03:15:09.421Z,51.111240
2022-11-04T03:16:09.391Z,51.111317
2022-11-04T03:17:09.419Z,51.111279
2022-11-04T03:18:09.758Z,51.111324
2022-11-04T03:19:09.707Z,51.111313
2022-11-04T03:20:09.365Z,51.111282
2022-11-04T03:21:09.399Z,51.111328
2022-11-04T03:22:09.410Z,51.111362
2022-11-04T03:23:09.437Z,51.111355
2022-11-04T03:24:09.347Z,51.111256
2022-11-04T03:25:09.315Z,51.111210
2022-11-04T03:26:09.252Z,51.111183
2022-11-04T03:27:09.219Z,51.111298
2022-11-04T03:28:09.643Z,51.111317
2022-11-04T03:29:09.225Z,51.111286
2022-11-04T03:30:09.337Z,51.111259
2022-11-04T03:31:09.222Z,51.111286
2022-11-04T03:32:10.214Z,51.111256
2022-11-04T03:33:09.450Z,51.111160
2022-11-04T03:34:09.182Z,51.111153
2022-11-04T03:35:09.294Z,51.111164
2022-11-04T03:36:09.237Z,51.111221
2022-11-04T03:37:09.316Z,51.111237
2022-11-04T03:38:09.222Z,51.111156
2022-11-04T03:39:09.222Z,51.111179
2022-11-04T03:40:09.331Z,51.111233
2022-11-04T03:41:09.193Z,51.111309
2022-11-04T03:42:09.227Z,51.111237
2022-11-04T03:43:09.625Z,51.111271
2022-11-04T03:44:09.290Z,51.111313
2022-11-04T03:45:09.196Z,51.111301
2022-11-04T03:46:09.298Z,51.111229
2022-11-04T03:47:09.148Z,51.111256
2022-11-04T03:48:09.081Z,51.111305
2022-11-04T03:49:09.092Z,51.111252
2022-11-04T03:50:09.060Z,51.111294
2022-11-04T03:51:09.159Z,51.111294
2022-11-04T03:52:09.152Z,51.111252
2022-11-04T03:53:09.427Z,51.111240
2022-11-04T03:54:09.048Z,51.111305
2022-11-04T03:55:09.110Z,51.111340
2022-11-04T03:56:09.119Z,51.111259
2022-11-04T03:57:09.124Z,51.111240
2022-11-04T03:58:09.270Z,51.111267
2022-11-04T03:59:09.065Z,51.111237
2022-11-04T04:00:09.014Z,51.111240
2022-11-04T04:01:09.200Z,51.111244
2022-11-04T04:02:09.196Z,51.111259
2022-11-04T04:03:09.098Z,51.111244
2022-11-04T04:04:09.043Z,51.111275
2022-11-04T04:05:09.948Z,51.111214
2022-11-04T04:06:08.961Z,51.111271
2022-11-04T04:07:08.945Z,51.111271
2022-11-04T04:08:09.361Z,51.111237
2022-11-04T04:09:08.984Z,51.111248
2022-11-04T04:10:08.890Z,51.111256
2022-11-04T04:11:08.928Z,51.111244
2022-11-04T04:12:08.905Z,51.111286
2022-11-04T04:13:08.933Z,51.111271
2022-11-04T04:14:08.938Z,51.111252
2022-11-04T04:15:08.967Z,51.111286
2022-11-04T04:16:08.916Z,51.111183
2022-11-04T04:18:09.170Z,51.111282
2022-11-04T04:19:08.931Z,51.111259
2022-11-04T04:20:08.967Z,51.111221
2022-11-04T04:21:08.961Z,51.111259
2022-11-04T04:22:08.948Z,51.111279
2022-11-04T04:23:08.941Z,51.111263
2022-11-04T04:24:09.154Z,51.111282
2022-11-04T04:25:08.898Z,51.111252
2022-11-04T04:26:08.902Z,51.111248
2022-11-04T04:27:08.836Z,51.111279
2022-11-04T04:28:09.133Z,51.111279
2022-11-04T04:29:08.873Z,51.111286
2022-11-04T04:30:08.766Z,51.111275
2022-11-04T04:31:08.742Z,51.111275
2022-11-04T04:32:08.848Z,51.111271
2022-11-04T04:33:08.778Z,51.111286
2022-11-04T04:34:08.775Z,51.111271
2022-11-04T04:35:08.867Z,51.111275
2022-11-04T04:36:08.832Z,51.111275
2022-11-04T04:37:08.803Z,51.111263
2022-11-04T04:38:40.751Z,51.111267
2022-11-04T04:39:54.215Z,51.111282
2022-11-04T04:40:08.857Z,51.111282
2022-11-04T04:41:08.773Z,51.111279
2022-11-04T04:42:08.790Z,51.111271
2022-11-04T04:43:08.997Z,51.111259
2022-11-04T04:44:08.881Z,51.111267
2022-11-04T04:45:08.748Z,51.111240
2022-11-04T04:46:08.888Z,51.111263
2022-11-04T04:47:40.706Z,51.111267
2022-11-04T04:48:08.648Z,51.111279
2022-11-04T04:49:08.729Z,51.111263
2022-11-04T04:50:08.715Z,51.111202
2022-11-04T04:51:08.749Z,51.111229
2022-11-04T04:52:08.605Z,51.111240
2022-11-04T04:53:08.802Z,51.111259
2022-11-04T04:54:08.745Z,51.111248
2022-11-04T04:55:08.619Z,51.111248
2022-11-04T04:56:08.645Z,51.111210
2022-11-04T04:57:08.659Z,51.111259
2022-11-04T04:58:08.718Z,51.111267
2022-11-04T04:59:08.680Z,51.111256
2022-11-04T05:00:08.565Z,51.111210
2022-11-04T05:01:08.679Z,51.111229
2022-11-04T05:02:08.851Z,51.111279
2022-11-04T05:03:08.979Z,51.111313
2022-11-04T05:04:08.628Z,51.111282
2022-11-04T05:05:08.686Z,51.111275
2022-11-04T05:06:09.599Z,51.111244
2022-11-04T05:07:08.624Z,51.111237
2022-11-04T05:08:08.996Z,51.111259
2022-11-04T05:09:08.603Z,51.111290
2022-11-04T05:10:08.519Z,51.111237
2022-11-04T05:11:08.525Z,51.111210
2022-11-04T05:12:08.457Z,51.111221
2022-11-04T05:13:09.538Z,51.111263
2022-11-04T05:14:08.490Z,51.111279
2022-11-04T05:15:08.594Z,51.111240
2022-11-04T05:16:08.560Z,51.111229
2022-11-04T05:17:08.531Z,51.111362
2022-11-04T05:18:08.841Z,51.111286
2022-11-04T05:19:08.513Z,51.111267
2022-11-04T05:20:08.499Z,51.111279
2022-11-04T05:21:08.583Z,51.111275
2022-11-04T05:22:08.511Z,51.111244
2022-11-04T05:23:08.561Z,51.111343
2022-11-04T05:24:08.552Z,51.111298
2022-11-04T05:25:08.565Z,51.111263
2022-11-04T05:26:08.497Z,51.111290
2022-11-04T05:27:08.476Z,51.111259
2022-11-04T05:28:08.868Z,51.111275
2022-11-04T05:29:08.457Z,51.111309
2022-11-04T05:30:08.365Z,51.111217
2022-11-04T05:31:08.350Z,51.111252
2022-11-04T05:32:08.338Z,51.111237
2022-11-04T05:33:08.701Z,51.111256
2022-11-04T05:34:08.412Z,51.111263
2022-11-04T05:35:08.467Z,51.111290
2022-11-04T05:36:08.414Z,51.111275
2022-11-04T05:37:08.388Z,51.111042
2022-11-04T05:38:08.401Z,51.111393
2022-11-04T05:39:08.414Z,51.111355
2022-11-04T05:40:08.360Z,51.111382
2022-11-04T05:41:08.337Z,51.111351
2022-11-04T05:42:08.386Z,51.111221
2022-11-04T05:43:08.714Z,51.111237
2022-11-04T05:44:08.375Z,51.111408
2022-11-04T05:45:08.343Z,51.111259
2022-11-04T05:46:08.388Z,51.111305
2022-11-04T05:47:08.222Z,51.111259
2022-11-04T05:48:08.214Z,51.111198
2022-11-04T05:49:08.229Z,51.111267
2022-11-04T05:50:08.245Z,51.111214
2022-11-04T05:51:08.238Z,51.111237
2022-11-04T05:52:08.202Z,51.111248
2022-11-04T05:53:08.667Z,51.111191
2022-11-04T05:54:08.181Z,51.111023
2022-11-04T05:55:08.195Z,51.111130
2022-11-04T05:56:08.312Z,51.111244
2022-11-04T05:57:08.278Z,51.111298
2022-11-04T05:58:08.549Z,51.111252
2022-11-04T05:59:08.260Z,51.111309
2022-11-04T06:00:08.137Z,51.111362
2022-11-04T06:01:08.210Z,51.111362
2022-11-04T06:02:08.401Z,51.111416
2022-11-04T06:03:10.726Z,51.111290
2022-11-04T06:04:10.203Z,51.111279
2022-11-04T06:05:08.222Z,51.111248
2022-11-04T06:06:08.171Z,51.111397
2022-11-04T06:07:08.236Z,51.111404
2022-11-04T06:08:08.634Z,51.111416
2022-11-04T06:09:08.142Z,51.111305
2022-11-04T06:10:08.079Z,51.111355
2022-11-04T06:11:08.072Z,51.111362
2022-11-04T06:12:08.156Z,51.111355
2022-11-04T06:13:08.095Z,51.111317
2022-11-04T06:14:08.059Z,51.111332
2022-11-04T06:15:08.049Z,51.111359
2022-11-04T06:16:18.075Z,51.111389
2022-11-04T06:17:09.081Z,51.111343
2022-11-04T06:18:08.406Z,51.111244
2022-11-04T06:19:10.837Z,51.111156
2022-11-04T06:20:09.009Z,51.111298
2022-11-04T06:21:07.995Z,51.111313
2022-11-04T06:22:08.184Z,51.111351
2022-11-04T06:23:08.091Z,51.111286
2022-11-04T06:24:08.128Z,51.111298
2022-11-04T06:25:08.084Z,51.111359
2022-11-04T06:26:08.024Z,51.111385
2022-11-04T06:27:08.069Z,51.111370
2022-11-04T06:28:08.391Z,51.111382
2022-11-04T06:29:08.239Z,51.111389
2022-11-04T06:30:08.033Z,51.111416
2022-11-04T06:31:08.031Z,51.111397
2022-11-04T06:32:07.974Z,51.111332
2022-11-04T06:33:07.977Z,51.111420
2022-11-04T06:34:07.934Z,51.111492
2022-11-04T06:35:07.942Z,51.111488
2022-11-04T06:36:07.936Z,51.111397
2022-11-04T06:37:08.011Z,51.111332
2022-11-04T06:38:08.204Z,51.111301
2022-11-04T06:39:07.891Z,51.111340
2022-11-04T06:40:07.886Z,51.111359
2022-11-04T06:41:07.856Z,51.111389
2022-11-04T06:42:08.865Z,51.111374
2022-11-04T06:43:08.096Z,51.111408
2022-11-04T06:44:07.826Z,51.111420
2022-11-04T06:45:07.918Z,51.111370
2022-11-04T06:46:07.915Z,51.111328
2022-11-04T06:47:07.891Z,51.111332
2022-11-04T06:48:07.946Z,51.111320
2022-11-04T06:49:07.887Z,51.111313
2022-11-04T06:50:07.884Z,51.111324
2022-11-04T06:51:07.926Z,51.111320
2022-11-04T06:52:07.857Z,51.111320
2022-11-04T06:53:08.283Z,51.111298
2022-11-04T06:54:07.847Z,51.111313
2022-11-04T06:55:07.858Z,51.111301
2022-11-04T06:56:07.823Z,51.111309
2022-11-04T06:57:07.884Z,51.111324
2022-11-04T06:58:07.861Z,51.111313
2022-11-04T06:59:08.860Z,51.111336
2022-11-04T07:00:07.742Z,51.111305
2022-11-04T07:01:14.607Z,51.111298
2022-11-04T07:02:09.893Z,51.111301
2022-11-04T07:03:07.927Z,51.111336
2022-11-04T07:04:07.850Z,51.111309
2022-11-04T07:05:07.781Z,51.111332
2022-11-04T07:06:07.857Z,51.111290
2022-11-04T07:07:07.831Z,51.111332
2022-11-04T07:08:15.351Z,51.111359
2022-11-04T07:09:07.771Z,51.111347
2022-11-04T07:10:07.772Z,51.111382
2022-11-04T07:11:07.826Z,51.111362
2022-11-04T07:12:07.735Z,51.111374
2022-11-04T07:13:07.796Z,51.111351
2022-11-04T07:14:07.822Z,51.111351
2022-11-04T07:15:07.775Z,51.111343
2022-11-04T07:16:07.797Z,51.111328
2022-11-04T07:17:07.731Z,51.111301
2022-11-04T07:18:08.129Z,51.111362
2022-11-04T07:19:07.691Z,51.111351
2022-11-04T07:20:07.745Z,51.111317
2022-11-04T07:21:10.236Z,51.111286
2022-11-04T07:22:08.599Z,51.111298
2022-11-04T07:23:07.579Z,51.111267
2022-11-04T07:24:07.663Z,51.111313
2022-11-04T07:25:07.611Z,51.111294
2022-11-04T07:26:07.590Z,51.111309
2022-11-04T07:27:07.610Z,51.111309
2022-11-04T07:28:07.937Z,51.111336
2022-11-04T07:29:07.599Z,51.111328
2022-11-04T07:30:07.533Z,51.111313
2022-11-04T07:31:07.599Z,51.111359
2022-11-04T07:32:08.566Z,51.111343
2022-11-04T07:33:07.562Z,51.111343
2022-11-04T07:34:07.957Z,51.111320
2022-11-04T07:35:07.633Z,51.111301
2022-11-04T07:36:07.688Z,51.111271
2022-11-04T07:37:07.556Z,51.111309
2022-11-04T07:38:07.989Z,51.111340
2022-11-04T07:39:07.574Z,51.111320
2022-11-04T07:40:07.590Z,51.111317
2022-11-04T07:41:07.571Z,51.111320
2022-11-04T07:42:07.593Z,51.111320
2022-11-04T07:43:07.564Z,51.111336
2022-11-04T07:44:07.516Z,51.111343
2022-11-04T07:45:07.575Z,51.111332
2022-11-04T07:46:07.498Z,51.111317
2022-11-04T07:47:07.496Z,51.111309
2022-11-04T07:48:07.809Z,51.111320
2022-11-04T07:49:07.468Z,51.111305
2022-11-04T07:50:11.006Z,51.111320
2022-11-04T07:51:08.502Z,51.111313
2022-11-04T07:52:07.371Z,51.111309
2022-11-04T07:53:07.879Z,51.111317
2022-11-04T07:54:07.375Z,51.111317
2022-11-04T07:55:07.380Z,51.111294
2022-11-04T07:56:07.555Z,51.111298
2022-11-04T07:57:07.325Z,51.111309
2022-11-04T07:58:07.447Z,51.111298
2022-11-04T07:59:07.393Z,51.111286
2022-11-04T08:00:07.426Z,51.111309
2022-11-04T08:01:07.381Z,51.111309
2022-11-04T08:02:07.536Z,51.111301
2022-11-04T08:03:07.825Z,51.111324
2022-11-04T08:04:07.348Z,51.111313
2022-11-04T08:05:07.357Z,51.111290
2022-11-04T08:06:07.328Z,51.111320
2022-11-04T08:07:07.365Z,51.111286
2022-11-04T08:08:07.353Z,51.111301
2022-11-04T08:09:07.422Z,51.111294
2022-11-04T08:10:07.344Z,51.111294
2022-11-04T08:11:07.261Z,51.111294
2022-11-04T08:12:07.218Z,51.111313
2022-11-04T08:13:07.832Z,51.111320
2022-11-04T08:14:07.230Z,51.111317
2022-11-04T08:15:07.299Z,51.111332
2022-11-04T08:16:07.423Z,51.111336
2022-11-04T08:17:07.361Z,51.111340
2022-11-04T08:18:07.445Z,51.111309
2022-11-04T08:19:07.316Z,51.111275
2022-11-04T08:20:07.405Z,51.111290
2022-11-04T08:21:07.287Z,51.111305
2022-11-04T08:22:07.259Z,51.111309
2022-11-04T08:23:07.601Z,51.111298
2022-11-04T08:24:07.325Z,51.111282
2022-11-04T08:25:07.299Z,51.111309
2022-11-04T08:26:08.321Z,51.111286
2022-11-04T08:27:07.275Z,51.111286
2022-11-04T08:28:07.269Z,51.111290
2022-11-04T08:29:07.233Z,51.111282
2022-11-04T08:30:07.254Z,51.111282
2022-11-04T08:31:07.215Z,51.111237
2022-11-04T08:32:07.235Z,51.111279
2022-11-04T08:33:07.476Z,51.111275
2022-11-04T08:34:07.199Z,51.111267
2022-11-04T08:35:07.357Z,51.111263
2022-11-04T08:36:07.274Z,51.111286
2022-11-04T08:37:07.255Z,51.111282
2022-11-04T08:38:07.188Z,51.111259
2022-11-04T08:39:10.667Z,51.111271
2022-11-04T08:40:08.275Z,51.111263
2022-11-04T08:41:07.061Z,51.111279
2022-11-04T08:42:07.069Z,51.111267
2022-11-04T08:43:07.516Z,51.111275
2022-11-04T08:44:07.088Z,51.111279
2022-11-04T08:45:07.042Z,51.111286
2022-11-04T08:46:07.059Z,51.111282
2022-11-04T08:47:07.003Z,51.111286
2022-11-04T08:48:07.499Z,51.111290
2022-11-04T08:49:10.023Z,51.111275
2022-11-04T08:50:07.985Z,51.111263
2022-11-04T08:51:07.119Z,51.111233
2022-11-04T08:52:07.086Z,51.111282
2022-11-04T08:53:07.435Z,51.111301
2022-11-04T08:54:07.014Z,51.111282
2022-11-04T08:55:07.063Z,51.111286
2022-11-04T08:56:07.109Z,51.111263
2022-11-04T08:57:07.089Z,51.111290
2022-11-04T08:58:07.350Z,51.111282
2022-11-04T08:59:07.028Z,51.111286
2022-11-04T09:00:07.069Z,51.111244
2022-11-04T09:01:06.999Z,51.111259
2022-11-04T09:02:07.155Z,51.111267
2022-11-04T09:03:07.343Z,51.111259
2022-11-04T09:04:07.099Z,51.111244
2022-11-04T09:05:06.883Z,51.111259
2022-11-04T09:06:06.891Z,51.111263
2022-11-04T09:07:08.195Z,51.111275
2022-11-04T09:08:07.912Z,51.111282
2022-11-04T09:09:06.926Z,51.111286
2022-11-04T09:10:06.838Z,51.111256
2022-11-04T09:11:06.783Z,51.111225
2022-11-04T09:12:06.893Z,51.111244
2022-11-04T09:13:07.171Z,51.111252
2022-11-04T09:14:06.910Z,51.111267
2022-11-04T09:15:06.864Z,51.111271
2022-11-04T09:16:06.907Z,51.111275
2022-11-04T09:17:06.864Z,51.111286
2022-11-04T09:18:06.886Z,51.111279
2022-11-04T09:19:06.957Z,51.111267
2022-11-04T09:20:06.902Z,51.111263
2022-11-04T09:21:06.851Z,51.111279
2022-11-04T09:22:06.829Z,51.111259
2022-11-04T09:23:07.209Z,51.111233
2022-11-04T09:24:06.871Z,51.111240
2022-11-04T09:25:07.771Z,51.111256
2022-11-04T09:26:06.754Z,51.111256
2022-11-04T09:27:06.674Z,51.111256
2022-11-04T09:28:06.729Z,51.111275
2022-11-04T09:29:06.678Z,51.111263
2022-11-04T09:30:06.715Z,51.111240
2022-11-04T09:31:06.735Z,51.111225
2022-11-04T09:32:06.662Z,51.111237
2022-11-04T09:33:06.786Z,51.111267
2022-11-04T09:34:06.616Z,51.111282
2022-11-04T09:35:07.301Z,51.111259
2022-11-04T09:36:06.648Z,51.111248
2022-11-04T09:37:06.725Z,51.111271
2022-11-04T09:38:06.732Z,51.111229
2022-11-04T09:39:06.735Z,51.111237
2022-11-04T09:40:06.744Z,51.111240
2022-11-04T09:41:07.775Z,51.111263
2022-11-04T09:42:06.673Z,51.111282
2022-11-04T09:43:07.040Z,51.111263
2022-11-04T09:44:06.849Z,51.111237
2022-11-04T09:45:21.150Z,51.111179
2022-11-04T09:46:08.829Z,51.111256
2022-11-04T09:47:06.728Z,51.111221
2022-11-04T09:48:06.587Z,51.111214
2022-11-04T09:49:06.565Z,51.111176
2022-11-04T09:50:06.566Z,51.111141
2022-11-04T09:51:12.907Z,51.111172
2022-11-04T09:52:07.591Z,51.111214
2022-11-04T09:53:06.818Z,51.111202
2022-11-04T09:54:06.661Z,51.111221
2022-11-04T09:55:06.609Z,51.111225
2022-11-04T09:56:06.672Z,51.111240
2022-11-04T09:57:06.660Z,51.111195
2022-11-04T09:58:07.510Z,51.111240
2022-11-04T09:59:06.625Z,51.111252
2022-11-04T10:00:06.625Z,51.111214
2022-11-04T10:01:06.594Z,51.111214
2022-11-04T10:02:06.703Z,51.111221
2022-11-04T10:03:06.873Z,51.111271
2022-11-04T10:04:06.564Z,51.111279
2022-11-04T10:05:06.601Z,51.111221
2022-11-04T10:06:06.590Z,51.111210
2022-11-04T10:07:06.733Z,51.111202
2022-11-04T10:08:06.576Z,51.111214
2022-11-04T10:09:06.628Z,51.111229
2022-11-04T10:10:06.524Z,51.111214
2022-11-04T10:11:06.616Z,51.111206
2022-11-04T10:12:06.569Z,51.111206
2022-11-04T10:13:06.973Z,51.111225
2022-11-04T10:14:06.553Z,51.111221
2022-11-04T10:15:06.684Z,51.111214
2022-11-04T10:16:06.517Z,51.111225
2022-11-04T10:17:06.346Z,51.111229
2022-11-04T10:18:06.367Z,51.111237
2022-11-04T10:19:06.395Z,51.111267
2022-11-04T10:20:06.409Z,51.111244
2022-11-04T10:21:06.366Z,51.111217
2022-11-04T10:22:06.400Z,51.111221
2022-11-04T10:23:06.785Z,51.111240
2022-11-04T10:24:07.316Z,51.111240
2022-11-04T10:25:06.297Z,51.111225
2022-11-04T10:26:06.455Z,51.111214
2022-11-04T10:27:06.401Z,51.111244
2022-11-04T10:28:06.364Z,51.111233
2022-11-04T10:29:06.438Z,51.111244
2022-11-04T10:30:06.471Z,51.111237
2022-11-04T10:31:06.407Z,51.111248
2022-11-04T10:32:06.719Z,51.111237
2022-11-04T10:33:06.564Z,51.111217
2022-11-04T10:34:06.440Z,51.111229
2022-11-04T10:35:06.455Z,51.111229
2022-11-04T10:36:06.497Z,51.111240
2022-11-04T10:37:06.313Z,51.111252
2022-11-04T10:38:06.342Z,51.111240
2022-11-04T10:39:06.423Z,51.111229
2022-11-04T10:40:06.699Z,51.111240
2022-11-04T10:41:07.438Z,51.111206
2022-11-04T10:42:07.420Z,51.111217
2022-11-04T10:43:07.571Z,51.111233
2022-11-04T10:44:06.311Z,51.111252
2022-11-04T10:45:06.201Z,51.111256
2022-11-04T10:46:06.231Z,51.111263
2022-11-04T10:47:06.283Z,51.111259
2022-11-04T10:48:06.154Z,51.111259
2022-11-04T10:49:06.121Z,51.111259
2022-11-04T10:51:08.171Z,51.111248
2022-11-04T10:52:06.190Z,51.111248
2022-11-04T10:53:06.460Z,51.111294
2022-11-04T10:54:06.178Z,51.111271
2022-11-04T10:55:06.270Z,51.111252
2022-11-04T10:56:06.231Z,51.111256
2022-11-04T10:57:06.257Z,51.111248
2022-11-04T10:58:06.170Z,51.111237
2022-11-04T10:59:06.068Z,51.111240
2022-11-04T11:00:06.128Z,51.111244
2022-11-04T11:01:08.957Z,51.111256
2022-11-04T11:02:07.245Z,51.111237
2022-11-04T11:03:06.448Z,51.111252
2022-11-04T11:04:06.148Z,51.111240
2022-11-04T11:05:06.101Z,51.111248
2022-11-04T11:06:05.997Z,51.111248
2022-11-04T11:07:06.076Z,51.111233
2022-11-04T11:08:06.031Z,51.111233
2022-11-04T11:09:06.034Z,51.111240
2022-11-04T11:10:06.106Z,51.111244
2022-11-04T11:11:06.122Z,51.111248
2022-11-04T11:12:29.403Z,51.111248
2022-11-04T11:13:08.403Z,51.111259
2022-11-04T11:14:06.089Z,51.111263
2022-11-04T11:15:08.662Z,51.111237
2022-11-04T11:16:06.967Z,51.111248
2022-11-04T11:17:05.992Z,51.111252
2022-11-04T11:18:06.125Z,51.111248
2022-11-04T11:19:06.067Z,51.111256
2022-11-04T11:20:06.073Z,51.111263
2022-11-04T11:21:05.995Z,51.111259
2022-11-04T11:22:05.996Z,51.111256
2022-11-04T11:23:06.375Z,51.111275
2022-11-04T11:24:05.962Z,51.111248
2022-11-04T11:25:05.983Z,51.111259
2022-11-04T11:26:06.581Z,51.111279
2022-11-04T11:27:05.973Z,51.111256